Overview Statistics Trail Chart Weather Telemetry Raw packets
 

This is the latest recevied weather packets stored in our database for station/object SM4JDW-10. If no packets are shown the sender has not sent any weather packets the latest 10 day(s).

<< 14 15 16 17 18 19 >>
Time Temp. Humidity Pressure Rain* Wind** Luminosity Snow
1787908742 16.67° C 66% 1018.6 hPa - - - -
1787906946 16.11° C 68% 1018.8 hPa - - - -
1787903347 15° C 70% 1019.3 hPa - - - -
1787901547 14.44° C 71% 1019.6 hPa - - - -
1787899746 13.89° C 69% 1019.6 hPa - - - -
1787897947 13.89° C 71% 1019.8 hPa - - - -
1787896147 13.89° C 67% 1019.6 hPa - - - -
1787894347 13.89° C 70% 1019.6 hPa - - - -
1787892551 13.33° C 70% 1019.8 hPa - - - -
1787890747 13.89° C 68% 1019.8 hPa - - - -
1787888947 13.33° C 69% 1020.2 hPa - - - -
1787887147 13.89° C 66% 1020.3 hPa - - - -
1787885345 13.89° C 67% 1020.4 hPa - - - -
1787883545 13.89° C 66% 1020.6 hPa - - - -
1787881745 13.89° C 65% 1020.7 hPa - - - -
1787879945 13.89° C 65% 1020.9 hPa - - - -
1787878145 13.89° C 63% 1020.9 hPa - - - -
1787876344 13.89° C 63% 1021 hPa - - - -
1787874544 14.44° C 63% 1021 hPa - - - -
1787872744 15° C 62% 1021.1 hPa - - - -
1787870945 15° C 61% 1021.4 hPa - - - -
1787869143 15.56° C 61% 1021.4 hPa - - - -
1787867343 16.11° C 60% 1021.4 hPa - - - -
1787865543 16.67° C 59% 1021.4 hPa - - - -
1787863743 16.67° C 58% 1021.3 hPa - - - -

* Rain since midnight (hover to see other rain measurements)
** Current wind speed in m/s (hover to see current wind gust speed)